sensor_id;sensor_type;location;lat;lon;timestamp;P1;durP1;ratioP1;P2;durP2;ratioP2
19619;SDS011;9957;52.282;21.110;2023-10-19T00:01:14;86.82;;;31.42;;
19619;SDS011;9957;52.282;21.110;2023-10-19T00:03:43;87.63;;;30.35;;
19619;SDS011;9957;52.282;21.110;2023-10-19T00:06:10;84.05;;;31.70;;
19619;SDS011;9957;52.282;21.110;2023-10-19T00:08:36;89.55;;;31.50;;
19619;SDS011;9957;52.282;21.110;2023-10-19T00:11:09;86.32;;;31.60;;
19619;SDS011;9957;52.282;21.110;2023-10-19T00:13:38;89.82;;;32.33;;
19619;SDS011;9957;52.282;21.110;2023-10-19T00:16:05;94.15;;;32.97;;
19619;SDS011;9957;52.282;21.110;2023-10-19T00:18:47;92.20;;;32.72;;
19619;SDS011;9957;52.282;21.110;2023-10-19T00:21:14;95.57;;;33.85;;
19619;SDS011;9957;52.282;21.110;2023-10-19T00:23:50;93.15;;;33.92;;
19619;SDS011;9957;52.282;21.110;2023-10-19T00:26:20;93.30;;;34.30;;
19619;SDS011;9957;52.282;21.110;2023-10-19T00:28:50;96.32;;;34.22;;
19619;SDS011;9957;52.282;21.110;2023-10-19T00:31:21;99.38;;;34.75;;
19619;SDS011;9957;52.282;21.110;2023-10-19T00:33:47;97.53;;;34.47;;
19619;SDS011;9957;52.282;21.110;2023-10-19T00:36:16;94.63;;;35.28;;
19619;SDS011;9957;52.282;21.110;2023-10-19T00:38:45;102.55;;;36.35;;
19619;SDS011;9957;52.282;21.110;2023-10-19T00:41:14;94.18;;;35.35;;
19619;SDS011;9957;52.282;21.110;2023-10-19T00:43:46;99.20;;;34.80;;
19619;SDS011;9957;52.282;21.110;2023-10-19T00:46:17;93.97;;;35.70;;
19619;SDS011;9957;52.282;21.110;2023-10-19T00:48:53;89.40;;;34.75;;
19619;SDS011;9957;52.282;21.110;2023-10-19T00:51:21;96.20;;;35.30;;
19619;SDS011;9957;52.282;21.110;2023-10-19T00:53:54;83.60;;;33.22;;
19619;SDS011;9957;52.282;21.110;2023-10-19T00:56:22;92.43;;;34.13;;
19619;SDS011;9957;52.282;21.110;2023-10-19T00:58:49;93.63;;;33.20;;
19619;SDS011;9957;52.282;21.110;2023-10-19T01:01:23;98.07;;;33.73;;
19619;SDS011;9957;52.282;21.110;2023-10-19T01:03:50;91.82;;;32.70;;
19619;SDS011;9957;52.282;21.110;2023-10-19T01:06:21;96.25;;;34.53;;
19619;SDS011;9957;52.282;21.110;2023-10-19T01:08:47;88.43;;;33.50;;
19619;SDS011;9957;52.282;21.110;2023-10-19T01:11:16;88.47;;;33.58;;
19619;SDS011;9957;52.282;21.110;2023-10-19T01:13:46;95.67;;;33.73;;
19619;SDS011;9957;52.282;21.110;2023-10-19T01:16:13;96.53;;;34.45;;
19619;SDS011;9957;52.282;21.110;2023-10-19T01:18:45;95.03;;;35.50;;
19619;SDS011;9957;52.282;21.110;2023-10-19T01:21:11;91.30;;;34.85;;
19619;SDS011;9957;52.282;21.110;2023-10-19T01:23:37;94.35;;;33.63;;
19619;SDS011;9957;52.282;21.110;2023-10-19T01:26:04;95.80;;;34.83;;
19619;SDS011;9957;52.282;21.110;2023-10-19T01:31:20;98.13;;;36.38;;
19619;SDS011;9957;52.282;21.110;2023-10-19T01:33:52;100.53;;;35.70;;
19619;SDS011;9957;52.282;21.110;2023-10-19T01:36:21;94.27;;;35.70;;
19619;SDS011;9957;52.282;21.110;2023-10-19T01:38:47;94.93;;;34.28;;
19619;SDS011;9957;52.282;21.110;2023-10-19T01:41:13;102.38;;;34.35;;
19619;SDS011;9957;52.282;21.110;2023-10-19T01:43:42;92.40;;;34.30;;
19619;SDS011;9957;52.282;21.110;2023-10-19T01:46:09;93.10;;;33.75;;
19619;SDS011;9957;52.282;21.110;2023-10-19T01:48:42;97.38;;;34.53;;
19619;SDS011;9957;52.282;21.110;2023-10-19T01:51:11;91.32;;;33.67;;
19619;SDS011;9957;52.282;21.110;2023-10-19T01:53:41;96.95;;;33.45;;
19619;SDS011;9957;52.282;21.110;2023-10-19T01:56:10;91.40;;;32.78;;
19619;SDS011;9957;52.282;21.110;2023-10-19T01:58:38;88.07;;;32.30;;
19619;SDS011;9957;52.282;21.110;2023-10-19T02:01:05;92.65;;;32.08;;
19619;SDS011;9957;52.282;21.110;2023-10-19T02:03:34;87.45;;;32.53;;
19619;SDS011;9957;52.282;21.110;2023-10-19T02:06:02;80.70;;;31.98;;
19619;SDS011;9957;52.282;21.110;2023-10-19T02:08:35;85.82;;;31.30;;
19619;SDS011;9957;52.282;21.110;2023-10-19T02:11:04;91.55;;;31.50;;
19619;SDS011;9957;52.282;21.110;2023-10-19T02:13:34;86.43;;;32.35;;
19619;SDS011;9957;52.282;21.110;2023-10-19T02:16:01;92.07;;;32.13;;
19619;SDS011;9957;52.282;21.110;2023-10-19T02:18:27;87.90;;;31.70;;
19619;SDS011;9957;52.282;21.110;2023-10-19T02:20:53;93.57;;;32.10;;
19619;SDS011;9957;52.282;21.110;2023-10-19T02:23:21;97.30;;;31.77;;
19619;SDS011;9957;52.282;21.110;2023-10-19T02:25:47;92.22;;;32.08;;
19619;SDS011;9957;52.282;21.110;2023-10-19T02:28:14;100.47;;;32.17;;
19619;SDS011;9957;52.282;21.110;2023-10-19T02:30:40;97.10;;;32.08;;
19619;SDS011;9957;52.282;21.110;2023-10-19T02:33:07;90.68;;;31.83;;
19619;SDS011;9957;52.282;21.110;2023-10-19T02:35:34;91.55;;;32.00;;
19619;SDS011;9957;52.282;21.110;2023-10-19T02:38:02;96.13;;;31.63;;
19619;SDS011;9957;52.282;21.110;2023-10-19T02:40:29;98.73;;;33.00;;
19619;SDS011;9957;52.282;21.110;2023-10-19T02:42:59;98.55;;;32.72;;
19619;SDS011;9957;52.282;21.110;2023-10-19T02:45:27;88.45;;;31.88;;
19619;SDS011;9957;52.282;21.110;2023-10-19T02:47:56;94.70;;;32.70;;
19619;SDS011;9957;52.282;21.110;2023-10-19T02:50:23;88.95;;;32.55;;
19619;SDS011;9957;52.282;21.110;2023-10-19T02:52:51;90.38;;;32.88;;
19619;SDS011;9957;52.282;21.110;2023-10-19T02:55:18;85.75;;;34.33;;
19619;SDS011;9957;52.282;21.110;2023-10-19T02:57:49;91.78;;;33.30;;
19619;SDS011;9957;52.282;21.110;2023-10-19T03:00:16;95.22;;;33.28;;
19619;SDS011;9957;52.282;21.110;2023-10-19T03:02:45;88.32;;;32.85;;
19619;SDS011;9957;52.282;21.110;2023-10-19T03:05:11;83.75;;;31.95;;
19619;SDS011;9957;52.282;21.110;2023-10-19T03:07:42;92.37;;;32.17;;
19619;SDS011;9957;52.282;21.110;2023-10-19T03:10:09;83.20;;;31.33;;
19619;SDS011;9957;52.282;21.110;2023-10-19T03:12:49;85.20;;;31.05;;
19619;SDS011;9957;52.282;21.110;2023-10-19T03:15:15;91.30;;;31.00;;
19619;SDS011;9957;52.282;21.110;2023-10-19T03:17:44;82.88;;;30.80;;
19619;SDS011;9957;52.282;21.110;2023-10-19T03:20:10;83.30;;;29.90;;
19619;SDS011;9957;52.282;21.110;2023-10-19T03:22:36;85.38;;;29.92;;
19619;SDS011;9957;52.282;21.110;2023-10-19T03:25:06;86.90;;;29.83;;
19619;SDS011;9957;52.282;21.110;2023-10-19T03:27:51;79.23;;;29.43;;
19619;SDS011;9957;52.282;21.110;2023-10-19T03:30:18;77.60;;;29.02;;
19619;SDS011;9957;52.282;21.110;2023-10-19T03:32:44;78.87;;;28.70;;
19619;SDS011;9957;52.282;21.110;2023-10-19T03:35:10;74.13;;;29.02;;
19619;SDS011;9957;52.282;21.110;2023-10-19T03:37:40;72.25;;;28.65;;
19619;SDS011;9957;52.282;21.110;2023-10-19T03:40:07;81.38;;;28.45;;
19619;SDS011;9957;52.282;21.110;2023-10-19T03:42:36;86.85;;;29.30;;
19619;SDS011;9957;52.282;21.110;2023-10-19T03:45:11;80.97;;;28.23;;
19619;SDS011;9957;52.282;21.110;2023-10-19T03:47:40;88.43;;;28.15;;
19619;SDS011;9957;52.282;21.110;2023-10-19T03:50:09;79.70;;;28.00;;
19619;SDS011;9957;52.282;21.110;2023-10-19T03:52:45;72.43;;;28.00;;
19619;SDS011;9957;52.282;21.110;2023-10-19T03:55:12;70.70;;;28.15;;
19619;SDS011;9957;52.282;21.110;2023-10-19T03:57:43;72.20;;;28.17;;
19619;SDS011;9957;52.282;21.110;2023-10-19T04:00:17;72.50;;;28.88;;
19619;SDS011;9957;52.282;21.110;2023-10-19T04:02:44;88.30;;;32.30;;
19619;SDS011;9957;52.282;21.110;2023-10-19T04:05:12;96.57;;;33.88;;
19619;SDS011;9957;52.282;21.110;2023-10-19T04:07:46;99.22;;;33.53;;
19619;SDS011;9957;52.282;21.110;2023-10-19T04:10:15;93.15;;;33.05;;
19619;SDS011;9957;52.282;21.110;2023-10-19T04:12:59;94.77;;;33.03;;
19619;SDS011;9957;52.282;21.110;2023-10-19T04:15:26;102.00;;;34.97;;
19619;SDS011;9957;52.282;21.110;2023-10-19T04:17:52;94.00;;;32.77;;
19619;SDS011;9957;52.282;21.110;2023-10-19T04:20:20;86.07;;;29.95;;
19619;SDS011;9957;52.282;21.110;2023-10-19T04:23:01;96.90;;;35.60;;
19619;SDS011;9957;52.282;21.110;2023-10-19T04:25:35;78.38;;;29.23;;
19619;SDS011;9957;52.282;21.110;2023-10-19T04:28:02;85.93;;;31.38;;
19619;SDS011;9957;52.282;21.110;2023-10-19T04:30:28;89.70;;;30.08;;
19619;SDS011;9957;52.282;21.110;2023-10-19T04:32:55;82.73;;;29.43;;
19619;SDS011;9957;52.282;21.110;2023-10-19T04:35:22;82.85;;;29.17;;
19619;SDS011;9957;52.282;21.110;2023-10-19T04:37:49;77.45;;;27.90;;
19619;SDS011;9957;52.282;21.110;2023-10-19T04:40:16;79.30;;;29.15;;
19619;SDS011;9957;52.282;21.110;2023-10-19T04:42:43;81.18;;;28.58;;
19619;SDS011;9957;52.282;21.110;2023-10-19T04:45:09;77.60;;;28.75;;
19619;SDS011;9957;52.282;21.110;2023-10-19T04:47:37;79.00;;;28.60;;
19619;SDS011;9957;52.282;21.110;2023-10-19T04:50:03;76.05;;;27.02;;
19619;SDS011;9957;52.282;21.110;2023-10-19T04:52:30;80.97;;;28.35;;
19619;SDS011;9957;52.282;21.110;2023-10-19T04:54:56;74.28;;;27.92;;
19619;SDS011;9957;52.282;21.110;2023-10-19T04:57:22;76.85;;;26.73;;
19619;SDS011;9957;52.282;21.110;2023-10-19T04:59:49;74.68;;;27.45;;
19619;SDS011;9957;52.282;21.110;2023-10-19T05:02:15;102.22;;;35.17;;
19619;SDS011;9957;52.282;21.110;2023-10-19T05:04:41;121.13;;;38.92;;
19619;SDS011;9957;52.282;21.110;2023-10-19T05:07:07;116.57;;;37.13;;
19619;SDS011;9957;52.282;21.110;2023-10-19T05:09:37;104.30;;;36.85;;
19619;SDS011;9957;52.282;21.110;2023-10-19T05:12:05;132.07;;;37.47;;
19619;SDS011;9957;52.282;21.110;2023-10-19T05:14:34;122.93;;;37.80;;
19619;SDS011;9957;52.282;21.110;2023-10-19T05:17:03;128.10;;;41.53;;
19619;SDS011;9957;52.282;21.110;2023-10-19T05:19:33;151.27;;;47.97;;
19619;SDS011;9957;52.282;21.110;2023-10-19T05:22:00;180.57;;;52.60;;
19619;SDS011;9957;52.282;21.110;2023-10-19T05:24:26;147.60;;;47.10;;
19619;SDS011;9957;52.282;21.110;2023-10-19T05:26:53;149.98;;;44.88;;
19619;SDS011;9957;52.282;21.110;2023-10-19T05:29:19;149.05;;;45.70;;
19619;SDS011;9957;52.282;21.110;2023-10-19T05:31:45;124.72;;;40.72;;
19619;SDS011;9957;52.282;21.110;2023-10-19T05:34:11;117.20;;;38.83;;
19619;SDS011;9957;52.282;21.110;2023-10-19T05:36:37;119.78;;;37.28;;
19619;SDS011;9957;52.282;21.110;2023-10-19T05:39:08;112.75;;;37.63;;
19619;SDS011;9957;52.282;21.110;2023-10-19T05:41:35;105.20;;;35.85;;
19619;SDS011;9957;52.282;21.110;2023-10-19T05:44:01;84.22;;;28.60;;
19619;SDS011;9957;52.282;21.110;2023-10-19T05:46:28;71.45;;;24.50;;
19619;SDS011;9957;52.282;21.110;2023-10-19T05:48:54;74.00;;;27.05;;
19619;SDS011;9957;52.282;21.110;2023-10-19T05:51:22;77.05;;;26.80;;
19619;SDS011;9957;52.282;21.110;2023-10-19T05:53:49;66.90;;;24.33;;
19619;SDS011;9957;52.282;21.110;2023-10-19T05:56:16;92.47;;;27.60;;
19619;SDS011;9957;52.282;21.110;2023-10-19T05:58:45;76.78;;;27.50;;
19619;SDS011;9957;52.282;21.110;2023-10-19T06:01:15;73.25;;;27.95;;
19619;SDS011;9957;52.282;21.110;2023-10-19T06:03:43;76.32;;;27.25;;
19619;SDS011;9957;52.282;21.110;2023-10-19T06:06:10;74.63;;;26.97;;
19619;SDS011;9957;52.282;21.110;2023-10-19T06:08:36;73.57;;;26.42;;
19619;SDS011;9957;52.282;21.110;2023-10-19T06:11:02;66.85;;;24.38;;
19619;SDS011;9957;52.282;21.110;2023-10-19T06:13:28;85.40;;;24.90;;
19619;SDS011;9957;52.282;21.110;2023-10-19T06:15:54;69.43;;;24.08;;
19619;SDS011;9957;52.282;21.110;2023-10-19T06:18:20;73.90;;;25.15;;
19619;SDS011;9957;52.282;21.110;2023-10-19T06:20:46;63.55;;;23.95;;
19619;SDS011;9957;52.282;21.110;2023-10-19T06:23:15;66.83;;;24.30;;
19619;SDS011;9957;52.282;21.110;2023-10-19T06:25:43;67.30;;;23.80;;
19619;SDS011;9957;52.282;21.110;2023-10-19T06:28:09;64.60;;;24.00;;
19619;SDS011;9957;52.282;21.110;2023-10-19T06:30:39;59.97;;;22.80;;
19619;SDS011;9957;52.282;21.110;2023-10-19T06:33:05;63.85;;;22.90;;
19619;SDS011;9957;52.282;21.110;2023-10-19T06:35:32;67.77;;;23.07;;
19619;SDS011;9957;52.282;21.110;2023-10-19T06:37:58;64.40;;;21.85;;
19619;SDS011;9957;52.282;21.110;2023-10-19T06:40:24;58.30;;;20.42;;
19619;SDS011;9957;52.282;21.110;2023-10-19T06:42:57;69.43;;;26.42;;
19619;SDS011;9957;52.282;21.110;2023-10-19T06:45:24;52.15;;;18.73;;
19619;SDS011;9957;52.282;21.110;2023-10-19T06:47:51;53.33;;;17.67;;
19619;SDS011;9957;52.282;21.110;2023-10-19T06:50:20;56.80;;;18.87;;
19619;SDS011;9957;52.282;21.110;2023-10-19T06:52:47;48.90;;;17.80;;
19619;SDS011;9957;52.282;21.110;2023-10-19T06:55:14;43.47;;;17.70;;
19619;SDS011;9957;52.282;21.110;2023-10-19T06:57:46;64.53;;;25.10;;
19619;SDS011;9957;52.282;21.110;2023-10-19T07:00:13;59.47;;;22.75;;
19619;SDS011;9957;52.282;21.110;2023-10-19T07:02:40;57.47;;;20.35;;
19619;SDS011;9957;52.282;21.110;2023-10-19T07:05:11;50.23;;;19.30;;
19619;SDS011;9957;52.282;21.110;2023-10-19T07:07:42;54.38;;;20.20;;
19619;SDS011;9957;52.282;21.110;2023-10-19T07:10:10;61.03;;;23.80;;
19619;SDS011;9957;52.282;21.110;2023-10-19T07:12:41;56.63;;;22.88;;
19619;SDS011;9957;52.282;21.110;2023-10-19T07:15:07;58.05;;;22.92;;
19619;SDS011;9957;52.282;21.110;2023-10-19T07:17:37;60.58;;;24.60;;
19619;SDS011;9957;52.282;21.110;2023-10-19T07:20:03;62.00;;;23.63;;
19619;SDS011;9957;52.282;21.110;2023-10-19T07:22:31;56.03;;;23.98;;
19619;SDS011;9957;52.282;21.110;2023-10-19T07:24:57;63.30;;;22.73;;
19619;SDS011;9957;52.282;21.110;2023-10-19T07:27:26;58.60;;;25.02;;
19619;SDS011;9957;52.282;21.110;2023-10-19T07:29:53;57.38;;;24.13;;
19619;SDS011;9957;52.282;21.110;2023-10-19T07:32:19;51.70;;;22.23;;
19619;SDS011;9957;52.282;21.110;2023-10-19T07:34:46;56.38;;;21.77;;
19619;SDS011;9957;52.282;21.110;2023-10-19T07:37:12;58.53;;;21.55;;
19619;SDS011;9957;52.282;21.110;2023-10-19T07:39:44;50.33;;;21.15;;
19619;SDS011;9957;52.282;21.110;2023-10-19T07:42:10;52.78;;;21.15;;
19619;SDS011;9957;52.282;21.110;2023-10-19T07:44:36;47.85;;;20.58;;
19619;SDS011;9957;52.282;21.110;2023-10-19T07:47:02;43.17;;;19.23;;
19619;SDS011;9957;52.282;21.110;2023-10-19T07:49:28;46.40;;;20.45;;
19619;SDS011;9957;52.282;21.110;2023-10-19T07:51:55;51.53;;;21.58;;
19619;SDS011;9957;52.282;21.110;2023-10-19T07:54:22;44.20;;;20.25;;
19619;SDS011;9957;52.282;21.110;2023-10-19T07:56:48;46.70;;;19.30;;
19619;SDS011;9957;52.282;21.110;2023-10-19T07:59:15;46.00;;;19.98;;
19619;SDS011;9957;52.282;21.110;2023-10-19T08:01:41;42.83;;;19.08;;
19619;SDS011;9957;52.282;21.110;2023-10-19T08:04:07;55.10;;;22.48;;
19619;SDS011;9957;52.282;21.110;2023-10-19T08:06:33;60.92;;;21.85;;
19619;SDS011;9957;52.282;21.110;2023-10-19T08:09:00;49.30;;;20.40;;
19619;SDS011;9957;52.282;21.110;2023-10-19T08:11:27;46.28;;;19.67;;
19619;SDS011;9957;52.282;21.110;2023-10-19T08:13:53;42.30;;;18.80;;
19619;SDS011;9957;52.282;21.110;2023-10-19T08:16:20;49.08;;;19.92;;
19619;SDS011;9957;52.282;21.110;2023-10-19T08:18:46;45.95;;;19.60;;
19619;SDS011;9957;52.282;21.110;2023-10-19T08:21:12;48.08;;;19.85;;
19619;SDS011;9957;52.282;21.110;2023-10-19T08:23:38;48.20;;;20.02;;
19619;SDS011;9957;52.282;21.110;2023-10-19T08:26:05;44.78;;;19.65;;
19619;SDS011;9957;52.282;21.110;2023-10-19T08:28:31;48.87;;;18.83;;
19619;SDS011;9957;52.282;21.110;2023-10-19T08:30:58;47.20;;;19.33;;
19619;SDS011;9957;52.282;21.110;2023-10-19T08:33:27;51.90;;;20.63;;
19619;SDS011;9957;52.282;21.110;2023-10-19T08:35:55;45.55;;;19.95;;
19619;SDS011;9957;52.282;21.110;2023-10-19T08:38:25;45.45;;;18.92;;
19619;SDS011;9957;52.282;21.110;2023-10-19T08:40:51;43.00;;;18.77;;
19619;SDS011;9957;52.282;21.110;2023-10-19T08:43:18;40.65;;;17.80;;
19619;SDS011;9957;52.282;21.110;2023-10-19T08:45:44;37.50;;;15.83;;
19619;SDS011;9957;52.282;21.110;2023-10-19T08:48:10;38.38;;;16.90;;
19619;SDS011;9957;52.282;21.110;2023-10-19T08:50:37;39.65;;;16.55;;
19619;SDS011;9957;52.282;21.110;2023-10-19T08:53:08;38.90;;;15.88;;
19619;SDS011;9957;52.282;21.110;2023-10-19T08:55:34;37.60;;;14.60;;
19619;SDS011;9957;52.282;21.110;2023-10-19T08:58:00;36.50;;;14.48;;
19619;SDS011;9957;52.282;21.110;2023-10-19T09:00:38;38.35;;;16.40;;
19619;SDS011;9957;52.282;21.110;2023-10-19T09:03:07;31.87;;;13.07;;
19619;SDS011;9957;52.282;21.110;2023-10-19T09:05:34;29.30;;;13.32;;
19619;SDS011;9957;52.282;21.110;2023-10-19T09:08:05;32.85;;;12.75;;
19619;SDS011;9957;52.282;21.110;2023-10-19T09:10:31;28.70;;;12.13;;
19619;SDS011;9957;52.282;21.110;2023-10-19T09:15:27;24.08;;;10.60;;
19619;SDS011;9957;52.282;21.110;2023-10-19T09:17:55;19.67;;;9.95;;
19619;SDS011;9957;52.282;21.110;2023-10-19T09:20:21;23.60;;;9.90;;
19619;SDS011;9957;52.282;21.110;2023-10-19T09:22:54;22.90;;;9.30;;
19619;SDS011;9957;52.282;21.110;2023-10-19T09:25:23;23.20;;;9.18;;
19619;SDS011;9957;52.282;21.110;2023-10-19T09:27:49;23.45;;;9.13;;
19619;SDS011;9957;52.282;21.110;2023-10-19T09:30:17;20.58;;;8.80;;
19619;SDS011;9957;52.282;21.110;2023-10-19T09:32:46;17.50;;;8.13;;
19619;SDS011;9957;52.282;21.110;2023-10-19T09:35:13;27.53;;;7.70;;
19619;SDS011;9957;52.282;21.110;2023-10-19T09:37:44;15.35;;;7.28;;
19619;SDS011;9957;52.282;21.110;2023-10-19T09:40:10;17.20;;;7.07;;
19619;SDS011;9957;52.282;21.110;2023-10-19T09:42:40;25.85;;;7.30;;
19619;SDS011;9957;52.282;21.110;2023-10-19T09:45:11;16.30;;;6.50;;
19619;SDS011;9957;52.282;21.110;2023-10-19T09:47:41;15.27;;;6.80;;
19619;SDS011;9957;52.282;21.110;2023-10-19T09:50:08;21.67;;;6.55;;
19619;SDS011;9957;52.282;21.110;2023-10-19T09:52:36;16.98;;;6.50;;
19619;SDS011;9957;52.282;21.110;2023-10-19T09:57:32;37.40;;;12.65;;
19619;SDS011;9957;52.282;21.110;2023-10-19T10:00:02;21.55;;;7.40;;
19619;SDS011;9957;52.282;21.110;2023-10-19T10:02:33;22.55;;;7.28;;
19619;SDS011;9957;52.282;21.110;2023-10-19T10:05:00;19.40;;;6.72;;
19619;SDS011;9957;52.282;21.110;2023-10-19T10:07:29;20.05;;;6.70;;
19619;SDS011;9957;52.282;21.110;2023-10-19T10:09:55;19.57;;;6.83;;
19619;SDS011;9957;52.282;21.110;2023-10-19T10:12:25;12.38;;;6.10;;
19619;SDS011;9957;52.282;21.110;2023-10-19T10:15:03;16.17;;;6.80;;
19619;SDS011;9957;52.282;21.110;2023-10-19T10:17:35;15.93;;;6.72;;
19619;SDS011;9957;52.282;21.110;2023-10-19T10:22:40;20.73;;;7.20;;
19619;SDS011;9957;52.282;21.110;2023-10-19T10:25:07;24.85;;;7.80;;
19619;SDS011;9957;52.282;21.110;2023-10-19T10:27:36;19.13;;;7.00;;
19619;SDS011;9957;52.282;21.110;2023-10-19T10:30:04;17.50;;;7.03;;
19619;SDS011;9957;52.282;21.110;2023-10-19T10:32:51;18.90;;;7.22;;
19619;SDS011;9957;52.282;21.110;2023-10-19T10:38:09;20.70;;;7.47;;
19619;SDS011;9957;52.282;21.110;2023-10-19T10:40:48;19.35;;;7.00;;
19619;SDS011;9957;52.282;21.110;2023-10-19T10:43:15;17.92;;;8.05;;
19619;SDS011;9957;52.282;21.110;2023-10-19T10:45:42;20.63;;;7.47;;
19619;SDS011;9957;52.282;21.110;2023-10-19T10:48:15;19.10;;;7.40;;
19619;SDS011;9957;52.282;21.110;2023-10-19T10:50:41;19.07;;;8.10;;
19619;SDS011;9957;52.282;21.110;2023-10-19T10:53:08;15.00;;;6.82;;
19619;SDS011;9957;52.282;21.110;2023-10-19T10:55:36;18.77;;;7.90;;
19619;SDS011;9957;52.282;21.110;2023-10-19T10:58:04;19.88;;;7.57;;
19619;SDS011;9957;52.282;21.110;2023-10-19T11:00:30;18.20;;;7.25;;
19619;SDS011;9957;52.282;21.110;2023-10-19T11:03:03;17.67;;;7.63;;
19619;SDS011;9957;52.282;21.110;2023-10-19T11:05:30;18.90;;;7.53;;
19619;SDS011;9957;52.282;21.110;2023-10-19T11:08:15;20.38;;;8.15;;
19619;SDS011;9957;52.282;21.110;2023-10-19T11:10:42;24.20;;;8.57;;
19619;SDS011;9957;52.282;21.110;2023-10-19T11:13:10;21.42;;;9.57;;
19619;SDS011;9957;52.282;21.110;2023-10-19T11:15:37;27.27;;;8.63;;
19619;SDS011;9957;52.282;21.110;2023-10-19T11:18:04;21.17;;;7.50;;
19619;SDS011;9957;52.282;21.110;2023-10-19T11:20:34;17.50;;;7.80;;
19619;SDS011;9957;52.282;21.110;2023-10-19T11:23:00;18.48;;;8.10;;
19619;SDS011;9957;52.282;21.110;2023-10-19T11:25:28;25.75;;;9.40;;
19619;SDS011;9957;52.282;21.110;2023-10-19T11:27:57;169.57;;;44.58;;
19619;SDS011;9957;52.282;21.110;2023-10-19T11:30:28;67.22;;;19.65;;
19619;SDS011;9957;52.282;21.110;2023-10-19T11:32:56;30.25;;;10.07;;
19619;SDS011;9957;52.282;21.110;2023-10-19T11:35:23;20.13;;;8.68;;
19619;SDS011;9957;52.282;21.110;2023-10-19T11:37:50;32.13;;;12.75;;
19619;SDS011;9957;52.282;21.110;2023-10-19T11:40:17;23.73;;;9.70;;
19619;SDS011;9957;52.282;21.110;2023-10-19T11:42:44;40.08;;;15.13;;
19619;SDS011;9957;52.282;21.110;2023-10-19T11:45:10;27.60;;;9.98;;
19619;SDS011;9957;52.282;21.110;2023-10-19T11:47:37;23.20;;;7.97;;
19619;SDS011;9957;52.282;21.110;2023-10-19T11:50:03;15.73;;;7.22;;
19619;SDS011;9957;52.282;21.110;2023-10-19T11:52:29;16.23;;;7.18;;
19619;SDS011;9957;52.282;21.110;2023-10-19T11:54:55;23.98;;;7.72;;
19619;SDS011;9957;52.282;21.110;2023-10-19T11:57:23;29.35;;;10.15;;
19619;SDS011;9957;52.282;21.110;2023-10-19T11:59:49;37.22;;;14.70;;
19619;SDS011;9957;52.282;21.110;2023-10-19T12:02:20;31.27;;;12.35;;
19619;SDS011;9957;52.282;21.110;2023-10-19T12:04:47;23.70;;;9.82;;
19619;SDS011;9957;52.282;21.110;2023-10-19T12:07:13;27.05;;;12.15;;
19619;SDS011;9957;52.282;21.110;2023-10-19T12:09:39;20.52;;;8.13;;
19619;SDS011;9957;52.282;21.110;2023-10-19T12:12:10;20.55;;;8.32;;
19619;SDS011;9957;52.282;21.110;2023-10-19T12:14:36;19.38;;;8.90;;
19619;SDS011;9957;52.282;21.110;2023-10-19T12:17:03;19.10;;;7.88;;
19619;SDS011;9957;52.282;21.110;2023-10-19T12:19:32;18.08;;;7.47;;
19619;SDS011;9957;52.282;21.110;2023-10-19T12:21:59;17.55;;;7.70;;
19619;SDS011;9957;52.282;21.110;2023-10-19T12:24:27;20.85;;;7.75;;
19619;SDS011;9957;52.282;21.110;2023-10-19T12:26:54;18.60;;;7.20;;
19619;SDS011;9957;52.282;21.110;2023-10-19T12:29:21;18.50;;;7.88;;
19619;SDS011;9957;52.282;21.110;2023-10-19T12:31:47;18.88;;;7.55;;
19619;SDS011;9957;52.282;21.110;2023-10-19T12:34:14;17.63;;;7.65;;
19619;SDS011;9957;52.282;21.110;2023-10-19T12:36:41;37.83;;;12.40;;
19619;SDS011;9957;52.282;21.110;2023-10-19T12:39:11;18.67;;;7.83;;
19619;SDS011;9957;52.282;21.110;2023-10-19T12:41:57;20.73;;;8.33;;
19619;SDS011;9957;52.282;21.110;2023-10-19T12:44:23;20.75;;;8.05;;
19619;SDS011;9957;52.282;21.110;2023-10-19T12:46:49;19.88;;;8.57;;
19619;SDS011;9957;52.282;21.110;2023-10-19T12:49:18;22.83;;;8.40;;
19619;SDS011;9957;52.282;21.110;2023-10-19T12:51:50;17.30;;;8.00;;
19619;SDS011;9957;52.282;21.110;2023-10-19T12:54:17;25.95;;;8.85;;
19619;SDS011;9957;52.282;21.110;2023-10-19T12:56:43;57.75;;;20.27;;
19619;SDS011;9957;52.282;21.110;2023-10-19T12:59:09;33.72;;;12.45;;
19619;SDS011;9957;52.282;21.110;2023-10-19T13:01:36;27.23;;;10.60;;
19619;SDS011;9957;52.282;21.110;2023-10-19T13:04:02;53.15;;;19.60;;
19619;SDS011;9957;52.282;21.110;2023-10-19T13:06:41;25.83;;;10.43;;
19619;SDS011;9957;52.282;21.110;2023-10-19T13:09:07;27.08;;;8.80;;
19619;SDS011;9957;52.282;21.110;2023-10-19T13:11:34;21.20;;;8.63;;
19619;SDS011;9957;52.282;21.110;2023-10-19T13:14:01;24.20;;;9.73;;
19619;SDS011;9957;52.282;21.110;2023-10-19T13:16:31;20.40;;;8.70;;
19619;SDS011;9957;52.282;21.110;2023-10-19T13:18:57;23.45;;;9.82;;
19619;SDS011;9957;52.282;21.110;2023-10-19T13:21:23;20.80;;;8.13;;
19619;SDS011;9957;52.282;21.110;2023-10-19T13:23:54;24.27;;;9.13;;
19619;SDS011;9957;52.282;21.110;2023-10-19T13:26:20;185.38;;;47.25;;
19619;SDS011;9957;52.282;21.110;2023-10-19T13:28:48;30.05;;;10.93;;
19619;SDS011;9957;52.282;21.110;2023-10-19T13:31:17;22.23;;;8.53;;
19619;SDS011;9957;52.282;21.110;2023-10-19T13:33:45;28.17;;;10.32;;
19619;SDS011;9957;52.282;21.110;2023-10-19T13:36:13;21.23;;;9.35;;
19619;SDS011;9957;52.282;21.110;2023-10-19T13:38:39;22.33;;;9.55;;
19619;SDS011;9957;52.282;21.110;2023-10-19T13:41:05;30.83;;;10.65;;
19619;SDS011;9957;52.282;21.110;2023-10-19T13:43:36;21.48;;;9.55;;
19619;SDS011;9957;52.282;21.110;2023-10-19T13:46:02;24.53;;;10.23;;
19619;SDS011;9957;52.282;21.110;2023-10-19T13:48:30;26.33;;;9.50;;
19619;SDS011;9957;52.282;21.110;2023-10-19T13:50:57;31.73;;;9.45;;
19619;SDS011;9957;52.282;21.110;2023-10-19T13:53:30;29.00;;;10.25;;
19619;SDS011;9957;52.282;21.110;2023-10-19T13:55:57;26.48;;;10.48;;
19619;SDS011;9957;52.282;21.110;2023-10-19T13:58:24;32.80;;;10.57;;
19619;SDS011;9957;52.282;21.110;2023-10-19T14:00:50;24.70;;;9.77;;
19619;SDS011;9957;52.282;21.110;2023-10-19T14:03:17;22.30;;;9.15;;
19619;SDS011;9957;52.282;21.110;2023-10-19T14:05:45;26.60;;;10.23;;
19619;SDS011;9957;52.282;21.110;2023-10-19T14:08:17;32.57;;;10.13;;
19619;SDS011;9957;52.282;21.110;2023-10-19T14:10:45;27.73;;;11.48;;
19619;SDS011;9957;52.282;21.110;2023-10-19T14:13:11;26.80;;;9.15;;
19619;SDS011;9957;52.282;21.110;2023-10-19T14:15:38;19.70;;;8.90;;
19619;SDS011;9957;52.282;21.110;2023-10-19T14:18:05;30.98;;;11.38;;
19619;SDS011;9957;52.282;21.110;2023-10-19T14:20:31;20.08;;;8.27;;
19619;SDS011;9957;52.282;21.110;2023-10-19T14:22:59;16.73;;;7.88;;
19619;SDS011;9957;52.282;21.110;2023-10-19T14:25:25;18.27;;;8.73;;
19619;SDS011;9957;52.282;21.110;2023-10-19T14:27:52;23.23;;;8.98;;
19619;SDS011;9957;52.282;21.110;2023-10-19T14:30:24;19.63;;;8.32;;
19619;SDS011;9957;52.282;21.110;2023-10-19T14:32:50;22.17;;;7.68;;
19619;SDS011;9957;52.282;21.110;2023-10-19T14:35:17;21.80;;;8.50;;
19619;SDS011;9957;52.282;21.110;2023-10-19T14:37:44;27.40;;;9.73;;
19619;SDS011;9957;52.282;21.110;2023-10-19T14:40:11;19.33;;;8.30;;
19619;SDS011;9957;52.282;21.110;2023-10-19T14:42:39;24.02;;;8.85;;